sensor_id;sensor_type;location;lat;lon;timestamp;P1;durP1;ratioP1;P2;durP2;ratioP2
37305;SDS011;23193;42.656;21.170;2023-08-31T00:00:41;18.25;;;3.88;;
37305;SDS011;23193;42.656;21.170;2023-08-31T00:03:07;14.32;;;3.72;;
37305;SDS011;23193;42.656;21.170;2023-08-31T00:05:38;13.30;;;3.38;;
37305;SDS011;23193;42.656;21.170;2023-08-31T00:08:05;11.93;;;4.55;;
37305;SDS011;23193;42.656;21.170;2023-08-31T00:10:32;8.50;;;3.17;;
37305;SDS011;23193;42.656;21.170;2023-08-31T00:12:58;14.82;;;3.40;;
37305;SDS011;23193;42.656;21.170;2023-08-31T00:15:24;13.95;;;3.10;;
37305;SDS011;23193;42.656;21.170;2023-08-31T00:17:50;9.63;;;2.53;;
37305;SDS011;23193;42.656;21.170;2023-08-31T00:20:17;14.32;;;3.42;;
37305;SDS011;23193;42.656;21.170;2023-08-31T00:22:43;14.82;;;3.53;;
37305;SDS011;23193;42.656;21.170;2023-08-31T00:25:09;12.27;;;3.17;;
37305;SDS011;23193;42.656;21.170;2023-08-31T00:27:36;13.85;;;3.72;;
37305;SDS011;23193;42.656;21.170;2023-08-31T00:30:03;17.60;;;3.55;;
37305;SDS011;23193;42.656;21.170;2023-08-31T00:32:31;13.55;;;2.85;;
37305;SDS011;23193;42.656;21.170;2023-08-31T00:34:58;20.75;;;3.67;;
37305;SDS011;23193;42.656;21.170;2023-08-31T00:37:24;17.95;;;4.10;;
37305;SDS011;23193;42.656;21.170;2023-08-31T00:39:51;18.08;;;3.58;;
37305;SDS011;23193;42.656;21.170;2023-08-31T00:42:20;11.90;;;3.53;;
37305;SDS011;23193;42.656;21.170;2023-08-31T00:44:46;13.85;;;3.67;;
37305;SDS011;23193;42.656;21.170;2023-08-31T00:47:14;20.35;;;3.42;;
37305;SDS011;23193;42.656;21.170;2023-08-31T00:49:40;19.33;;;4.00;;
37305;SDS011;23193;42.656;21.170;2023-08-31T00:52:06;14.02;;;3.47;;
37305;SDS011;23193;42.656;21.170;2023-08-31T00:54:33;11.10;;;3.33;;
37305;SDS011;23193;42.656;21.170;2023-08-31T00:57:00;12.70;;;3.35;;
37305;SDS011;23193;42.656;21.170;2023-08-31T00:59:26;13.20;;;3.40;;
37305;SDS011;23193;42.656;21.170;2023-08-31T01:01:56;10.95;;;3.22;;
37305;SDS011;23193;42.656;21.170;2023-08-31T01:04:31;15.15;;;3.40;;
37305;SDS011;23193;42.656;21.170;2023-08-31T01:07:02;16.48;;;3.40;;
37305;SDS011;23193;42.656;21.170;2023-08-31T01:09:38;13.95;;;3.63;;
37305;SDS011;23193;42.656;21.170;2023-08-31T01:12:06;15.40;;;3.47;;
37305;SDS011;23193;42.656;21.170;2023-08-31T01:14:36;8.85;;;3.03;;
37305;SDS011;23193;42.656;21.170;2023-08-31T01:17:04;15.90;;;3.45;;
37305;SDS011;23193;42.656;21.170;2023-08-31T01:22:02;10.65;;;3.15;;
37305;SDS011;23193;42.656;21.170;2023-08-31T01:24:30;11.65;;;3.22;;
37305;SDS011;23193;42.656;21.170;2023-08-31T01:26:56;12.07;;;3.20;;
37305;SDS011;23193;42.656;21.170;2023-08-31T01:29:22;15.68;;;3.17;;
37305;SDS011;23193;42.656;21.170;2023-08-31T01:31:49;8.40;;;2.67;;
37305;SDS011;23193;42.656;21.170;2023-08-31T01:34:27;11.18;;;3.00;;
37305;SDS011;23193;42.656;21.170;2023-08-31T01:37:10;10.55;;;3.10;;
37305;SDS011;23193;42.656;21.170;2023-08-31T01:39:48;11.10;;;2.80;;
37305;SDS011;23193;42.656;21.170;2023-08-31T01:42:15;8.63;;;2.85;;
37305;SDS011;23193;42.656;21.170;2023-08-31T01:44:42;10.48;;;3.13;;
37305;SDS011;23193;42.656;21.170;2023-08-31T01:47:08;13.25;;;3.08;;
37305;SDS011;23193;42.656;21.170;2023-08-31T01:49:36;6.63;;;2.88;;
37305;SDS011;23193;42.656;21.170;2023-08-31T01:52:02;7.50;;;2.55;;
37305;SDS011;23193;42.656;21.170;2023-08-31T01:54:29;10.50;;;3.10;;
37305;SDS011;23193;42.656;21.170;2023-08-31T01:56:55;11.82;;;3.15;;
37305;SDS011;23193;42.656;21.170;2023-08-31T01:59:21;10.07;;;3.03;;
37305;SDS011;23193;42.656;21.170;2023-08-31T02:01:47;14.93;;;3.92;;
37305;SDS011;23193;42.656;21.170;2023-08-31T02:04:13;9.07;;;3.33;;
37305;SDS011;23193;42.656;21.170;2023-08-31T02:06:39;10.43;;;2.97;;
37305;SDS011;23193;42.656;21.170;2023-08-31T02:09:05;7.00;;;2.65;;
37305;SDS011;23193;42.656;21.170;2023-08-31T02:11:32;11.63;;;2.20;;
37305;SDS011;23193;42.656;21.170;2023-08-31T02:14:02;9.57;;;2.70;;
37305;SDS011;23193;42.656;21.170;2023-08-31T02:16:29;10.15;;;3.25;;
37305;SDS011;23193;42.656;21.170;2023-08-31T02:18:56;7.80;;;2.15;;
37305;SDS011;23193;42.656;21.170;2023-08-31T02:21:22;10.18;;;2.17;;
37305;SDS011;23193;42.656;21.170;2023-08-31T02:23:48;8.98;;;3.20;;
37305;SDS011;23193;42.656;21.170;2023-08-31T02:26:15;11.07;;;2.95;;
37305;SDS011;23193;42.656;21.170;2023-08-31T02:28:41;6.57;;;2.40;;
37305;SDS011;23193;42.656;21.170;2023-08-31T02:31:09;6.90;;;2.08;;
37305;SDS011;23193;42.656;21.170;2023-08-31T02:33:38;6.35;;;2.00;;
37305;SDS011;23193;42.656;21.170;2023-08-31T02:36:04;7.60;;;2.33;;
37305;SDS011;23193;42.656;21.170;2023-08-31T02:38:31;9.30;;;3.13;;
37305;SDS011;23193;42.656;21.170;2023-08-31T02:40:57;7.55;;;2.40;;
37305;SDS011;23193;42.656;21.170;2023-08-31T02:43:23;5.35;;;2.05;;
37305;SDS011;23193;42.656;21.170;2023-08-31T02:45:50;7.07;;;2.20;;
37305;SDS011;23193;42.656;21.170;2023-08-31T02:48:24;9.18;;;2.78;;
37305;SDS011;23193;42.656;21.170;2023-08-31T02:50:50;5.78;;;2.53;;
37305;SDS011;23193;42.656;21.170;2023-08-31T02:53:16;9.82;;;2.83;;
37305;SDS011;23193;42.656;21.170;2023-08-31T02:55:42;9.00;;;3.47;;
37305;SDS011;23193;42.656;21.170;2023-08-31T02:58:08;7.10;;;2.78;;
37305;SDS011;23193;42.656;21.170;2023-08-31T03:00:34;9.48;;;3.47;;
37305;SDS011;23193;42.656;21.170;2023-08-31T03:03:04;11.60;;;2.97;;
37305;SDS011;23193;42.656;21.170;2023-08-31T03:05:30;11.65;;;3.63;;
37305;SDS011;23193;42.656;21.170;2023-08-31T03:07:56;11.90;;;4.45;;
37305;SDS011;23193;42.656;21.170;2023-08-31T03:10:23;7.82;;;3.78;;
37305;SDS011;23193;42.656;21.170;2023-08-31T03:12:49;16.08;;;6.00;;
37305;SDS011;23193;42.656;21.170;2023-08-31T03:15:15;15.10;;;6.00;;
37305;SDS011;23193;42.656;21.170;2023-08-31T03:17:41;10.55;;;4.97;;
37305;SDS011;23193;42.656;21.170;2023-08-31T03:20:07;15.95;;;4.97;;
37305;SDS011;23193;42.656;21.170;2023-08-31T03:22:34;15.98;;;5.10;;
37305;SDS011;23193;42.656;21.170;2023-08-31T03:25:00;20.48;;;5.03;;
37305;SDS011;23193;42.656;21.170;2023-08-31T03:27:26;16.38;;;5.22;;
37305;SDS011;23193;42.656;21.170;2023-08-31T03:29:52;12.35;;;4.68;;
37305;SDS011;23193;42.656;21.170;2023-08-31T03:32:18;14.00;;;4.43;;
37305;SDS011;23193;42.656;21.170;2023-08-31T03:34:44;16.05;;;4.78;;
37305;SDS011;23193;42.656;21.170;2023-08-31T03:37:11;12.07;;;3.50;;
37305;SDS011;23193;42.656;21.170;2023-08-31T03:39:37;12.75;;;3.83;;
37305;SDS011;23193;42.656;21.170;2023-08-31T03:42:03;9.20;;;3.85;;
37305;SDS011;23193;42.656;21.170;2023-08-31T03:44:29;10.48;;;4.00;;
37305;SDS011;23193;42.656;21.170;2023-08-31T03:46:55;15.13;;;4.15;;
37305;SDS011;23193;42.656;21.170;2023-08-31T03:49:21;15.45;;;4.32;;
37305;SDS011;23193;42.656;21.170;2023-08-31T03:51:47;16.88;;;4.68;;
37305;SDS011;23193;42.656;21.170;2023-08-31T03:54:13;14.45;;;3.78;;
37305;SDS011;23193;42.656;21.170;2023-08-31T03:56:40;11.48;;;3.63;;
37305;SDS011;23193;42.656;21.170;2023-08-31T03:59:06;18.60;;;4.65;;
37305;SDS011;23193;42.656;21.170;2023-08-31T04:01:32;14.90;;;4.53;;
37305;SDS011;23193;42.656;21.170;2023-08-31T04:03:58;12.80;;;3.60;;
37305;SDS011;23193;42.656;21.170;2023-08-31T04:06:24;12.98;;;4.55;;
37305;SDS011;23193;42.656;21.170;2023-08-31T04:08:51;13.38;;;3.60;;
37305;SDS011;23193;42.656;21.170;2023-08-31T04:11:17;18.08;;;3.63;;
37305;SDS011;23193;42.656;21.170;2023-08-31T04:13:43;11.65;;;3.72;;
37305;SDS011;23193;42.656;21.170;2023-08-31T04:16:09;11.38;;;4.13;;
37305;SDS011;23193;42.656;21.170;2023-08-31T04:18:36;12.32;;;4.03;;
37305;SDS011;23193;42.656;21.170;2023-08-31T04:21:02;14.30;;;4.32;;
37305;SDS011;23193;42.656;21.170;2023-08-31T04:23:28;13.40;;;4.78;;
37305;SDS011;23193;42.656;21.170;2023-08-31T04:25:55;11.55;;;4.40;;
37305;SDS011;23193;42.656;21.170;2023-08-31T04:28:22;13.75;;;4.60;;
37305;SDS011;23193;42.656;21.170;2023-08-31T04:30:49;18.45;;;5.28;;
37305;SDS011;23193;42.656;21.170;2023-08-31T04:33:15;13.88;;;4.90;;
37305;SDS011;23193;42.656;21.170;2023-08-31T04:35:42;13.68;;;4.90;;
37305;SDS011;23193;42.656;21.170;2023-08-31T04:38:08;13.88;;;4.28;;
37305;SDS011;23193;42.656;21.170;2023-08-31T04:40:35;14.80;;;5.15;;
37305;SDS011;23193;42.656;21.170;2023-08-31T04:43:04;10.60;;;4.05;;
37305;SDS011;23193;42.656;21.170;2023-08-31T04:45:30;10.57;;;4.40;;
37305;SDS011;23193;42.656;21.170;2023-08-31T04:47:56;11.07;;;4.70;;
37305;SDS011;23193;42.656;21.170;2023-08-31T04:50:22;12.90;;;5.30;;
37305;SDS011;23193;42.656;21.170;2023-08-31T04:52:48;20.40;;;4.93;;
37305;SDS011;23193;42.656;21.170;2023-08-31T04:55:14;9.35;;;5.35;;
37305;SDS011;23193;42.656;21.170;2023-08-31T04:57:40;8.52;;;4.07;;
37305;SDS011;23193;42.656;21.170;2023-08-31T05:00:06;13.00;;;4.25;;
37305;SDS011;23193;42.656;21.170;2023-08-31T05:02:36;10.27;;;5.23;;
37305;SDS011;23193;42.656;21.170;2023-08-31T05:05:03;7.85;;;4.05;;
37305;SDS011;23193;42.656;21.170;2023-08-31T05:07:30;14.27;;;5.03;;
37305;SDS011;23193;42.656;21.170;2023-08-31T05:09:56;15.30;;;4.80;;
37305;SDS011;23193;42.656;21.170;2023-08-31T05:12:22;12.73;;;4.88;;
37305;SDS011;23193;42.656;21.170;2023-08-31T05:14:48;10.48;;;4.85;;
37305;SDS011;23193;42.656;21.170;2023-08-31T05:17:15;10.60;;;4.43;;
37305;SDS011;23193;42.656;21.170;2023-08-31T05:19:41;8.75;;;4.45;;
37305;SDS011;23193;42.656;21.170;2023-08-31T05:22:07;18.75;;;5.32;;
37305;SDS011;23193;42.656;21.170;2023-08-31T05:24:33;11.70;;;4.50;;
37305;SDS011;23193;42.656;21.170;2023-08-31T05:26:59;8.32;;;4.40;;
37305;SDS011;23193;42.656;21.170;2023-08-31T05:29:25;7.60;;;4.43;;
37305;SDS011;23193;42.656;21.170;2023-08-31T05:31:51;9.15;;;4.50;;
37305;SDS011;23193;42.656;21.170;2023-08-31T05:34:20;11.57;;;4.40;;
37305;SDS011;23193;42.656;21.170;2023-08-31T05:36:47;13.82;;;4.40;;
37305;SDS011;23193;42.656;21.170;2023-08-31T05:39:13;8.65;;;4.93;;
37305;SDS011;23193;42.656;21.170;2023-08-31T05:41:41;8.20;;;3.95;;
37305;SDS011;23193;42.656;21.170;2023-08-31T05:44:08;10.65;;;4.47;;
37305;SDS011;23193;42.656;21.170;2023-08-31T05:46:34;14.02;;;4.50;;
37305;SDS011;23193;42.656;21.170;2023-08-31T05:49:00;8.23;;;4.75;;
37305;SDS011;23193;42.656;21.170;2023-08-31T05:51:26;10.15;;;4.50;;
37305;SDS011;23193;42.656;21.170;2023-08-31T05:53:52;10.45;;;4.20;;
37305;SDS011;23193;42.656;21.170;2023-08-31T05:56:19;10.35;;;4.72;;
37305;SDS011;23193;42.656;21.170;2023-08-31T05:58:45;6.78;;;4.28;;
37305;SDS011;23193;42.656;21.170;2023-08-31T06:01:12;12.70;;;4.32;;
37305;SDS011;23193;42.656;21.170;2023-08-31T06:03:38;15.55;;;5.07;;
37305;SDS011;23193;42.656;21.170;2023-08-31T06:06:04;10.15;;;4.68;;
37305;SDS011;23193;42.656;21.170;2023-08-31T06:08:30;9.75;;;4.68;;
37305;SDS011;23193;42.656;21.170;2023-08-31T06:10:56;6.78;;;4.32;;
37305;SDS011;23193;42.656;21.170;2023-08-31T06:13:23;7.38;;;4.38;;
37305;SDS011;23193;42.656;21.170;2023-08-31T06:15:49;9.98;;;4.10;;
37305;SDS011;23193;42.656;21.170;2023-08-31T06:18:15;9.13;;;5.00;;
37305;SDS011;23193;42.656;21.170;2023-08-31T06:20:42;7.38;;;4.18;;
37305;SDS011;23193;42.656;21.170;2023-08-31T06:23:09;9.38;;;4.40;;
37305;SDS011;23193;42.656;21.170;2023-08-31T06:25:36;9.10;;;4.57;;
37305;SDS011;23193;42.656;21.170;2023-08-31T06:28:02;10.60;;;4.40;;
37305;SDS011;23193;42.656;21.170;2023-08-31T06:30:30;9.20;;;4.45;;
37305;SDS011;23193;42.656;21.170;2023-08-31T06:32:56;7.07;;;4.28;;
37305;SDS011;23193;42.656;21.170;2023-08-31T06:35:22;8.48;;;4.15;;
37305;SDS011;23193;42.656;21.170;2023-08-31T06:37:49;10.98;;;4.40;;
37305;SDS011;23193;42.656;21.170;2023-08-31T06:40:15;9.23;;;4.03;;
37305;SDS011;23193;42.656;21.170;2023-08-31T06:42:42;10.05;;;4.63;;
37305;SDS011;23193;42.656;21.170;2023-08-31T06:45:08;10.18;;;4.47;;
37305;SDS011;23193;42.656;21.170;2023-08-31T06:47:35;11.02;;;4.57;;
37305;SDS011;23193;42.656;21.170;2023-08-31T06:50:01;5.85;;;4.13;;
37305;SDS011;23193;42.656;21.170;2023-08-31T06:52:28;10.80;;;5.15;;
37305;SDS011;23193;42.656;21.170;2023-08-31T06:54:54;13.07;;;5.82;;
37305;SDS011;23193;42.656;21.170;2023-08-31T06:57:24;12.10;;;5.60;;
37305;SDS011;23193;42.656;21.170;2023-08-31T06:59:51;17.92;;;5.47;;
37305;SDS011;23193;42.656;21.170;2023-08-31T07:02:17;12.88;;;6.18;;
37305;SDS011;23193;42.656;21.170;2023-08-31T07:04:47;16.00;;;5.10;;
37305;SDS011;23193;42.656;21.170;2023-08-31T07:07:14;11.95;;;6.10;;
37305;SDS011;23193;42.656;21.170;2023-08-31T07:09:44;15.25;;;6.57;;
37305;SDS011;23193;42.656;21.170;2023-08-31T07:12:10;14.05;;;5.57;;
37305;SDS011;23193;42.656;21.170;2023-08-31T07:14:36;14.68;;;4.95;;
37305;SDS011;23193;42.656;21.170;2023-08-31T07:17:02;9.25;;;4.28;;
37305;SDS011;23193;42.656;21.170;2023-08-31T07:19:29;9.02;;;3.88;;
37305;SDS011;23193;42.656;21.170;2023-08-31T07:21:55;8.80;;;4.03;;
37305;SDS011;23193;42.656;21.170;2023-08-31T07:24:22;5.97;;;3.42;;
37305;SDS011;23193;42.656;21.170;2023-08-31T07:26:49;8.25;;;3.95;;
37305;SDS011;23193;42.656;21.170;2023-08-31T07:29:15;12.27;;;4.32;;
37305;SDS011;23193;42.656;21.170;2023-08-31T07:31:41;7.65;;;4.00;;
37305;SDS011;23193;42.656;21.170;2023-08-31T07:34:07;16.08;;;7.40;;
37305;SDS011;23193;42.656;21.170;2023-08-31T07:36:33;10.38;;;5.05;;
37305;SDS011;23193;42.656;21.170;2023-08-31T07:38:59;13.60;;;4.22;;
37305;SDS011;23193;42.656;21.170;2023-08-31T07:41:26;15.40;;;4.95;;
37305;SDS011;23193;42.656;21.170;2023-08-31T07:43:52;12.10;;;4.05;;
37305;SDS011;23193;42.656;21.170;2023-08-31T07:46:18;12.20;;;3.67;;
37305;SDS011;23193;42.656;21.170;2023-08-31T07:48:44;17.35;;;5.95;;
37305;SDS011;23193;42.656;21.170;2023-08-31T07:51:12;11.65;;;5.07;;
37305;SDS011;23193;42.656;21.170;2023-08-31T07:53:38;10.48;;;4.35;;
37305;SDS011;23193;42.656;21.170;2023-08-31T07:56:04;8.23;;;2.60;;
37305;SDS011;23193;42.656;21.170;2023-08-31T07:58:31;4.35;;;2.05;;
37305;SDS011;23193;42.656;21.170;2023-08-31T08:00:57;7.63;;;3.53;;
37305;SDS011;23193;42.656;21.170;2023-08-31T08:03:23;16.58;;;4.15;;
37305;SDS011;23193;42.656;21.170;2023-08-31T08:05:50;10.13;;;3.17;;
37305;SDS011;23193;42.656;21.170;2023-08-31T08:08:16;7.93;;;2.63;;
37305;SDS011;23193;42.656;21.170;2023-08-31T08:10:42;5.93;;;1.95;;
37305;SDS011;23193;42.656;21.170;2023-08-31T08:13:09;7.57;;;3.03;;
37305;SDS011;23193;42.656;21.170;2023-08-31T08:15:35;10.30;;;3.28;;
37305;SDS011;23193;42.656;21.170;2023-08-31T08:18:01;22.40;;;6.30;;
37305;SDS011;23193;42.656;21.170;2023-08-31T08:20:28;6.57;;;3.72;;
37305;SDS011;23193;42.656;21.170;2023-08-31T08:22:54;13.02;;;4.95;;
37305;SDS011;23193;42.656;21.170;2023-08-31T08:25:21;9.55;;;3.50;;
37305;SDS011;23193;42.656;21.170;2023-08-31T08:27:47;11.07;;;4.88;;
37305;SDS011;23193;42.656;21.170;2023-08-31T08:30:14;8.45;;;3.78;;
37305;SDS011;23193;42.656;21.170;2023-08-31T08:32:41;10.98;;;3.40;;
37305;SDS011;23193;42.656;21.170;2023-08-31T08:35:07;9.50;;;3.15;;
37305;SDS011;23193;42.656;21.170;2023-08-31T08:37:33;8.73;;;3.58;;
37305;SDS011;23193;42.656;21.170;2023-08-31T08:40:00;12.77;;;5.22;;
37305;SDS011;23193;42.656;21.170;2023-08-31T08:42:26;12.32;;;3.38;;
37305;SDS011;23193;42.656;21.170;2023-08-31T08:44:55;10.00;;;3.45;;
37305;SDS011;23193;42.656;21.170;2023-08-31T08:47:22;9.77;;;3.95;;
37305;SDS011;23193;42.656;21.170;2023-08-31T08:49:48;8.13;;;3.45;;
37305;SDS011;23193;42.656;21.170;2023-08-31T08:52:17;9.63;;;4.30;;
37305;SDS011;23193;42.656;21.170;2023-08-31T08:54:44;12.98;;;3.30;;
37305;SDS011;23193;42.656;21.170;2023-08-31T08:57:10;8.20;;;3.25;;
37305;SDS011;23193;42.656;21.170;2023-08-31T08:59:36;9.00;;;3.28;;
37305;SDS011;23193;42.656;21.170;2023-08-31T09:02:03;9.95;;;4.88;;
37305;SDS011;23193;42.656;21.170;2023-08-31T09:04:30;16.35;;;4.72;;
37305;SDS011;23193;42.656;21.170;2023-08-31T09:06:56;16.95;;;4.40;;
37305;SDS011;23193;42.656;21.170;2023-08-31T09:09:22;7.90;;;3.35;;
37305;SDS011;23193;42.656;21.170;2023-08-31T09:11:49;10.30;;;3.50;;
37305;SDS011;23193;42.656;21.170;2023-08-31T09:14:16;14.05;;;4.45;;
37305;SDS011;23193;42.656;21.170;2023-08-31T09:16:45;16.88;;;4.20;;
37305;SDS011;23193;42.656;21.170;2023-08-31T09:19:22;17.27;;;4.95;;
37305;SDS011;23193;42.656;21.170;2023-08-31T09:21:49;14.32;;;4.80;;
37305;SDS011;23193;42.656;21.170;2023-08-31T09:24:15;11.65;;;3.85;;
37305;SDS011;23193;42.656;21.170;2023-08-31T09:26:45;18.98;;;8.13;;
37305;SDS011;23193;42.656;21.170;2023-08-31T09:29:11;15.93;;;8.10;;
37305;SDS011;23193;42.656;21.170;2023-08-31T09:31:38;12.98;;;5.53;;
37305;SDS011;23193;42.656;21.170;2023-08-31T09:34:07;7.65;;;3.75;;
37305;SDS011;23193;42.656;21.170;2023-08-31T09:36:33;13.85;;;3.38;;
37305;SDS011;23193;42.656;21.170;2023-08-31T09:38:59;9.38;;;3.47;;
37305;SDS011;23193;42.656;21.170;2023-08-31T09:41:25;9.52;;;2.80;;
37305;SDS011;23193;42.656;21.170;2023-08-31T09:43:51;11.68;;;3.03;;
37305;SDS011;23193;42.656;21.170;2023-08-31T09:46:18;7.82;;;3.50;;
37305;SDS011;23193;42.656;21.170;2023-08-31T09:48:44;16.63;;;3.47;;
37305;SDS011;23193;42.656;21.170;2023-08-31T09:51:10;15.43;;;5.15;;
37305;SDS011;23193;42.656;21.170;2023-08-31T09:53:37;7.28;;;3.38;;
37305;SDS011;23193;42.656;21.170;2023-08-31T09:56:06;10.18;;;3.33;;
37305;SDS011;23193;42.656;21.170;2023-08-31T09:58:32;13.70;;;3.05;;
37305;SDS011;23193;42.656;21.170;2023-08-31T10:00:59;11.15;;;3.38;;
37305;SDS011;23193;42.656;21.170;2023-08-31T10:03:26;8.43;;;3.05;;
37305;SDS011;23193;42.656;21.170;2023-08-31T10:05:52;12.43;;;3.72;;
37305;SDS011;23193;42.656;21.170;2023-08-31T10:08:19;9.05;;;3.22;;
37305;SDS011;23193;42.656;21.170;2023-08-31T10:10:45;9.43;;;3.13;;
37305;SDS011;23193;42.656;21.170;2023-08-31T10:13:12;10.95;;;3.40;;
37305;SDS011;23193;42.656;21.170;2023-08-31T10:15:40;10.77;;;3.25;;
37305;SDS011;23193;42.656;21.170;2023-08-31T10:18:07;8.93;;;4.13;;
37305;SDS011;23193;42.656;21.170;2023-08-31T10:20:33;10.57;;;3.70;;
37305;SDS011;23193;42.656;21.170;2023-08-31T10:23:01;7.97;;;3.42;;
37305;SDS011;23193;42.656;21.170;2023-08-31T10:28:16;12.48;;;3.75;;
37305;SDS011;23193;42.656;21.170;2023-08-31T10:33:30;8.18;;;3.33;;
37305;SDS011;23193;42.656;21.170;2023-08-31T10:35:56;13.98;;;4.00;;
37305;SDS011;23193;42.656;21.170;2023-08-31T10:43:53;10.43;;;4.57;;
37305;SDS011;23193;42.656;21.170;2023-08-31T10:46:45;15.32;;;5.38;;
37305;SDS011;23193;42.656;21.170;2023-08-31T10:51:38;6.90;;;2.78;;
37305;SDS011;23193;42.656;21.170;2023-08-31T10:56:31;6.43;;;2.25;;
37305;SDS011;23193;42.656;21.170;2023-08-31T10:58:58;7.72;;;2.53;;
37305;SDS011;23193;42.656;21.170;2023-08-31T11:04:09;11.73;;;4.70;;
37305;SDS011;23193;42.656;21.170;2023-08-31T11:06:35;10.70;;;4.22;;
37305;SDS011;23193;42.656;21.170;2023-08-31T11:09:02;6.45;;;3.08;;
37305;SDS011;23193;42.656;21.170;2023-08-31T11:11:29;5.88;;;2.58;;
37305;SDS011;23193;42.656;21.170;2023-08-31T11:14:03;7.68;;;3.15;;
37305;SDS011;23193;42.656;21.170;2023-08-31T11:16:29;9.57;;;3.83;;
37305;SDS011;23193;42.656;21.170;2023-08-31T11:18:56;6.72;;;3.33;;
37305;SDS011;23193;42.656;21.170;2023-08-31T11:21:22;10.40;;;4.18;;
37305;SDS011;23193;42.656;21.170;2023-08-31T11:23:48;5.25;;;2.78;;
37305;SDS011;23193;42.656;21.170;2023-08-31T11:26:14;15.43;;;4.07;;
37305;SDS011;23193;42.656;21.170;2023-08-31T11:28:43;9.65;;;4.43;;
37305;SDS011;23193;42.656;21.170;2023-08-31T11:31:11;8.32;;;4.03;;
37305;SDS011;23193;42.656;21.170;2023-08-31T11:33:37;12.27;;;6.13;;
37305;SDS011;23193;42.656;21.170;2023-08-31T11:36:03;13.52;;;3.95;;
37305;SDS011;23193;42.656;21.170;2023-08-31T11:38:30;5.53;;;3.42;;
37305;SDS011;23193;42.656;21.170;2023-08-31T11:40:58;8.23;;;3.53;;
37305;SDS011;23193;42.656;21.170;2023-08-31T11:43:24;6.57;;;2.85;;
37305;SDS011;23193;42.656;21.170;2023-08-31T11:45:51;5.85;;;2.90;;
37305;SDS011;23193;42.656;21.170;2023-08-31T11:48:18;7.75;;;3.30;;
37305;SDS011;23193;42.656;21.170;2023-08-31T11:50:44;8.23;;;2.78;;
37305;SDS011;23193;42.656;21.170;2023-08-31T11:53:10;5.80;;;2.60;;
37305;SDS011;23193;42.656;21.170;2023-08-31T11:55:36;4.95;;;2.58;;
37305;SDS011;23193;42.656;21.170;2023-08-31T11:58:15;6.45;;;2.35;;
37305;SDS011;23193;42.656;21.170;2023-08-31T12:00:42;9.18;;;2.90;;
37305;SDS011;23193;42.656;21.170;2023-08-31T12:03:08;10.82;;;3.13;;
37305;SDS011;23193;42.656;21.170;2023-08-31T12:05:44;6.82;;;3.38;;
37305;SDS011;23193;42.656;21.170;2023-08-31T12:08:11;7.93;;;3.92;;
37305;SDS011;23193;42.656;21.170;2023-08-31T12:10:40;6.70;;;3.25;;
37305;SDS011;23193;42.656;21.170;2023-08-31T12:13:10;10.13;;;3.70;;
37305;SDS011;23193;42.656;21.170;2023-08-31T12:18:07;7.07;;;3.20;;
37305;SDS011;23193;42.656;21.170;2023-08-31T12:20:33;8.23;;;3.40;;
37305;SDS011;23193;42.656;21.170;2023-08-31T12:23:07;10.20;;;3.13;;
37305;SDS011;23193;42.656;21.170;2023-08-31T12:25:34;7.22;;;2.50;;
37305;SDS011;23193;42.656;21.170;2023-08-31T12:28:01;9.40;;;3.42;;
37305;SDS011;23193;42.656;21.170;2023-08-31T12:30:28;9.07;;;2.72;;
37305;SDS011;23193;42.656;21.170;2023-08-31T12:32:54;6.50;;;2.60;;
37305;SDS011;23193;42.656;21.170;2023-08-31T12:35:22;9.32;;;3.30;;
37305;SDS011;23193;42.656;21.170;2023-08-31T12:37:48;7.80;;;3.30;;
37305;SDS011;23193;42.656;21.170;2023-08-31T12:40:14;6.03;;;2.95;;
37305;SDS011;23193;42.656;21.170;2023-08-31T12:42:44;9.30;;;3.80;;
37305;SDS011;23193;42.656;21.170;2023-08-31T12:45:10;10.77;;;3.10;;
37305;SDS011;23193;42.656;21.170;2023-08-31T12:47:36;6.22;;;2.50;;
37305;SDS011;23193;42.656;21.170;2023-08-31T12:50:02;10.05;;;3.28;;
37305;SDS011;23193;42.656;21.170;2023-08-31T12:52:29;9.98;;;2.65;;
37305;SDS011;23193;42.656;21.170;2023-08-31T12:54:55;10.00;;;2.95;;
37305;SDS011;23193;42.656;21.170;2023-08-31T12:57:21;13.07;;;2.90;;
37305;SDS011;23193;42.656;21.170;2023-08-31T12:59:47;12.95;;;3.08;;
37305;SDS011;23193;42.656;21.170;2023-08-31T13:02:13;11.10;;;3.53;;
37305;SDS011;23193;42.656;21.170;2023-08-31T13:04:39;7.13;;;4.35;;
37305;SDS011;23193;42.656;21.170;2023-08-31T13:07:05;6.05;;;3.08;;
37305;SDS011;23193;42.656;21.170;2023-08-31T13:09:31;7.88;;;3.33;;
37305;SDS011;23193;42.656;21.170;2023-08-31T13:11:57;12.70;;;3.72;;
37305;SDS011;23193;42.656;21.170;2023-08-31T13:14:24;6.90;;;3.05;;
37305;SDS011;23193;42.656;21.170;2023-08-31T13:16:50;8.57;;;3.22;;
37305;SDS011;23193;42.656;21.170;2023-08-31T13:19:16;5.80;;;2.95;;
37305;SDS011;23193;42.656;21.170;2023-08-31T13:21:42;12.55;;;3.15;;
37305;SDS011;23193;42.656;21.170;2023-08-31T13:24:08;10.20;;;3.88;;
37305;SDS011;23193;42.656;21.170;2023-08-31T13:26:34;5.45;;;3.05;;
37305;SDS011;23193;42.656;21.170;2023-08-31T13:29:01;7.50;;;2.45;;
37305;SDS011;23193;42.656;21.170;2023-08-31T13:31:27;4.80;;;2.33;;
37305;SDS011;23193;42.656;21.170;2023-08-31T13:33:53;6.15;;;2.85;;
37305;SDS011;23193;42.656;21.170;2023-08-31T13:36:19;10.30;;;2.88;;
37305;SDS011;23193;42.656;21.170;2023-08-31T13:38:46;6.00;;;2.92;;
37305;SDS011;23193;42.656;21.170;2023-08-31T13:41:12;10.52;;;2.95;;
37305;SDS011;23193;42.656;21.170;2023-08-31T13:43:38;9.57;;;3.35;;
37305;SDS011;23193;42.656;21.170;2023-08-31T13:46:04;6.78;;;2.95;;
37305;SDS011;23193;42.656;21.170;2023-08-31T13:48:30;9.25;;;2.90;;
37305;SDS011;23193;42.656;21.170;2023-08-31T13:50:56;9.48;;;3.53;;
37305;SDS011;23193;42.656;21.170;2023-08-31T13:53:23;8.20;;;2.72;;
37305;SDS011;23193;42.656;21.170;2023-08-31T13:55:49;10.48;;;3.08;;
37305;SDS011;23193;42.656;21.170;2023-08-31T13:58:15;5.53;;;2.72;;
37305;SDS011;23193;42.656;21.170;2023-08-31T14:00:42;7.07;;;2.25;;
37305;SDS011;23193;42.656;21.170;2023-08-31T14:03:08;9.20;;;2.92;;
37305;SDS011;23193;42.656;21.170;2023-08-31T14:05:34;6.38;;;2.05;;
37305;SDS011;23193;42.656;21.170;2023-08-31T14:08:00;7.88;;;3.97;;
37305;SDS011;23193;42.656;21.170;2023-08-31T14:10:30;8.63;;;4.20;;
37305;SDS011;23193;42.656;21.170;2023-08-31T14:12:56;18.65;;;3.92;;
37305;SDS011;23193;42.656;21.170;2023-08-31T14:15:23;16.65;;;2.95;;
37305;SDS011;23193;42.656;21.170;2023-08-31T14:17:52;5.82;;;2.17;;
37305;SDS011;23193;42.656;21.170;2023-08-31T14:20:18;12.93;;;2.55;;
37305;SDS011;23193;42.656;21.170;2023-08-31T14:22:44;6.85;;;2.10;;
37305;SDS011;23193;42.656;21.170;2023-08-31T14:25:11;9.30;;;2.35;;
37305;SDS011;23193;42.656;21.170;2023-08-31T14:27:37;16.02;;;2.72;;
37305;SDS011;23193;42.656;21.170;2023-08-31T14:30:04;21.80;;;4.03;;
37305;SDS011;23193;42.656;21.170;2023-08-31T14:32:31;9.77;;;2.67;;
37305;SDS011;23193;42.656;21.170;2023-08-31T14:34:57;5.72;;;2.35;;
37305;SDS011;23193;42.656;21.170;2023-08-31T14:37:23;6.93;;;2.75;;
37305;SDS011;23193;42.656;21.170;2023-08-31T14:39:50;19.60;;;3.60;;
37305;SDS011;23193;42.656;21.170;2023-08-31T14:42:16;7.45;;;2.50;;
37305;SDS011;23193;42.656;21.170;2023-08-31T14:44:45;7.82;;;2.47;;
37305;SDS011;23193;42.656;21.170;2023-08-31T14:47:11;4.88;;;2.70;;
37305;SDS011;23193;42.656;21.170;2023-08-31T14:49:40;9.10;;;2.58;;